sensor_id;sensor_type;location;lat;lon;timestamp;P1;durP1;ratioP1;P2;durP2;ratioP2
16826;SDS011;8530;49.540;8.576;2023-06-22T00:00:09;5.30;;;4.80;;
16826;SDS011;8530;49.540;8.576;2023-06-22T00:02:37;5.90;;;5.30;;
16826;SDS011;8530;49.540;8.576;2023-06-22T00:05:05;6.00;;;4.97;;
16826;SDS011;8530;49.540;8.576;2023-06-22T00:07:32;8.87;;;5.60;;
16826;SDS011;8530;49.540;8.576;2023-06-22T00:09:59;5.30;;;4.80;;
16826;SDS011;8530;49.540;8.576;2023-06-22T00:12:25;7.43;;;5.30;;
16826;SDS011;8530;49.540;8.576;2023-06-22T00:14:52;7.93;;;6.03;;
16826;SDS011;8530;49.540;8.576;2023-06-22T00:17:19;8.07;;;5.30;;
16826;SDS011;8530;49.540;8.576;2023-06-22T00:19:46;8.40;;;5.97;;
16826;SDS011;8530;49.540;8.576;2023-06-22T00:22:19;8.03;;;6.67;;
16826;SDS011;8530;49.540;8.576;2023-06-22T00:24:54;8.20;;;5.67;;
16826;SDS011;8530;49.540;8.576;2023-06-22T00:27:20;6.00;;;5.40;;
16826;SDS011;8530;49.540;8.576;2023-06-22T00:29:47;9.27;;;6.60;;
16826;SDS011;8530;49.540;8.576;2023-06-22T00:32:14;6.57;;;5.90;;
16826;SDS011;8530;49.540;8.576;2023-06-22T00:34:42;7.50;;;6.80;;
16826;SDS011;8530;49.540;8.576;2023-06-22T00:37:08;8.47;;;6.73;;
16826;SDS011;8530;49.540;8.576;2023-06-22T00:39:37;8.87;;;6.90;;
16826;SDS011;8530;49.540;8.576;2023-06-22T00:42:04;8.30;;;7.50;;
16826;SDS011;8530;49.540;8.576;2023-06-22T00:44:31;8.80;;;7.63;;
16826;SDS011;8530;49.540;8.576;2023-06-22T00:46:58;9.77;;;8.40;;
16826;SDS011;8530;49.540;8.576;2023-06-22T00:49:25;7.87;;;7.10;;
16826;SDS011;8530;49.540;8.576;2023-06-22T00:51:52;8.07;;;7.27;;
16826;SDS011;8530;49.540;8.576;2023-06-22T00:54:19;9.63;;;8.00;;
16826;SDS011;8530;49.540;8.576;2023-06-22T00:56:51;8.50;;;7.67;;
16826;SDS011;8530;49.540;8.576;2023-06-22T00:59:21;11.07;;;8.00;;
16826;SDS011;8530;49.540;8.576;2023-06-22T01:01:48;23.93;;;10.73;;
16826;SDS011;8530;49.540;8.576;2023-06-22T01:04:14;34.53;;;11.63;;
16826;SDS011;8530;49.540;8.576;2023-06-22T01:06:45;13.57;;;10.40;;
16826;SDS011;8530;49.540;8.576;2023-06-22T01:09:18;13.63;;;10.50;;
16826;SDS011;8530;49.540;8.576;2023-06-22T01:11:49;14.90;;;12.60;;
16826;SDS011;8530;49.540;8.576;2023-06-22T01:14:21;12.87;;;11.23;;
16826;SDS011;8530;49.540;8.576;2023-06-22T01:16:53;15.73;;;13.23;;
16826;SDS011;8530;49.540;8.576;2023-06-22T01:19:28;14.43;;;12.67;;
16826;SDS011;8530;49.540;8.576;2023-06-22T01:22:01;20.90;;;13.33;;
16826;SDS011;8530;49.540;8.576;2023-06-22T01:24:32;17.33;;;14.10;;
16826;SDS011;8530;49.540;8.576;2023-06-22T01:27:09;16.77;;;15.00;;
16826;SDS011;8530;49.540;8.576;2023-06-22T01:29:48;17.10;;;15.30;;
16826;SDS011;8530;49.540;8.576;2023-06-22T01:32:16;23.00;;;15.20;;
16826;SDS011;8530;49.540;8.576;2023-06-22T01:34:43;30.57;;;16.03;;
16826;SDS011;8530;49.540;8.576;2023-06-22T01:37:12;18.87;;;16.20;;
16826;SDS011;8530;49.540;8.576;2023-06-22T01:39:39;20.70;;;15.23;;
16826;SDS011;8530;49.540;8.576;2023-06-22T01:42:06;20.17;;;16.23;;
16826;SDS011;8530;49.540;8.576;2023-06-22T01:44:33;18.10;;;16.03;;
16826;SDS011;8530;49.540;8.576;2023-06-22T01:47:02;17.23;;;15.60;;
16826;SDS011;8530;49.540;8.576;2023-06-22T01:49:29;16.57;;;14.80;;
16826;SDS011;8530;49.540;8.576;2023-06-22T01:51:56;20.30;;;14.50;;
16826;SDS011;8530;49.540;8.576;2023-06-22T01:54:23;18.33;;;16.40;;
16826;SDS011;8530;49.540;8.576;2023-06-22T01:56:50;14.17;;;12.67;;
16826;SDS011;8530;49.540;8.576;2023-06-22T01:59:17;16.20;;;14.50;;
16826;SDS011;8530;49.540;8.576;2023-06-22T02:01:52;17.83;;;16.03;;
16826;SDS011;8530;49.540;8.576;2023-06-22T02:04:30;17.47;;;15.67;;
16826;SDS011;8530;49.540;8.576;2023-06-22T02:07:00;17.73;;;14.10;;
16826;SDS011;8530;49.540;8.576;2023-06-22T02:09:31;16.50;;;14.80;;
16826;SDS011;8530;49.540;8.576;2023-06-22T02:11:59;18.40;;;16.40;;
16826;SDS011;8530;49.540;8.576;2023-06-22T02:14:28;17.47;;;15.77;;
16826;SDS011;8530;49.540;8.576;2023-06-22T02:16:56;15.60;;;14.10;;
16826;SDS011;8530;49.540;8.576;2023-06-22T02:19:24;20.53;;;16.50;;
16826;SDS011;8530;49.540;8.576;2023-06-22T02:21:54;17.70;;;16.00;;
16826;SDS011;8530;49.540;8.576;2023-06-22T02:24:21;22.20;;;17.00;;
16826;SDS011;8530;49.540;8.576;2023-06-22T02:26:48;17.80;;;15.93;;
16826;SDS011;8530;49.540;8.576;2023-06-22T02:29:15;20.70;;;15.50;;
16826;SDS011;8530;49.540;8.576;2023-06-22T02:31:42;15.07;;;13.57;;
16826;SDS011;8530;49.540;8.576;2023-06-22T02:34:09;16.50;;;14.90;;
16826;SDS011;8530;49.540;8.576;2023-06-22T02:36:43;18.37;;;15.23;;
16826;SDS011;8530;49.540;8.576;2023-06-22T02:39:17;16.53;;;14.83;;
16826;SDS011;8530;49.540;8.576;2023-06-22T02:41:48;19.07;;;16.90;;
16826;SDS011;8530;49.540;8.576;2023-06-22T02:44:15;19.47;;;17.37;;
16826;SDS011;8530;49.540;8.576;2023-06-22T02:46:42;22.73;;;16.70;;
16826;SDS011;8530;49.540;8.576;2023-06-22T02:49:10;18.80;;;16.13;;
16826;SDS011;8530;49.540;8.576;2023-06-22T02:51:38;21.80;;;16.50;;
16826;SDS011;8530;49.540;8.576;2023-06-22T02:54:05;23.03;;;18.27;;
16826;SDS011;8530;49.540;8.576;2023-06-22T02:56:33;19.37;;;17.13;;
16826;SDS011;8530;49.540;8.576;2023-06-22T02:59:01;24.57;;;17.93;;
16826;SDS011;8530;49.540;8.576;2023-06-22T03:01:28;18.63;;;16.67;;
16826;SDS011;8530;49.540;8.576;2023-06-22T03:04:02;23.57;;;16.70;;
16826;SDS011;8530;49.540;8.576;2023-06-22T03:06:29;17.23;;;15.43;;
16826;SDS011;8530;49.540;8.576;2023-06-22T03:08:59;19.10;;;17.20;;
16826;SDS011;8530;49.540;8.576;2023-06-22T03:11:28;17.73;;;15.90;;
16826;SDS011;8530;49.540;8.576;2023-06-22T03:13:57;24.47;;;17.20;;
16826;SDS011;8530;49.540;8.576;2023-06-22T03:16:23;18.17;;;15.43;;
16826;SDS011;8530;49.540;8.576;2023-06-22T03:18:50;17.37;;;15.67;;
16826;SDS011;8530;49.540;8.576;2023-06-22T03:21:18;17.30;;;15.53;;
16826;SDS011;8530;49.540;8.576;2023-06-22T03:23:45;18.97;;;16.90;;
16826;SDS011;8530;49.540;8.576;2023-06-22T03:26:12;18.43;;;16.43;;
16826;SDS011;8530;49.540;8.576;2023-06-22T03:28:39;17.07;;;15.30;;
16826;SDS011;8530;49.540;8.576;2023-06-22T03:31:07;17.93;;;15.97;;
16826;SDS011;8530;49.540;8.576;2023-06-22T03:33:35;18.73;;;16.20;;
16826;SDS011;8530;49.540;8.576;2023-06-22T03:36:02;19.87;;;17.20;;
16826;SDS011;8530;49.540;8.576;2023-06-22T03:38:29;18.80;;;14.90;;
16826;SDS011;8530;49.540;8.576;2023-06-22T03:40:56;18.93;;;16.97;;
16826;SDS011;8530;49.540;8.576;2023-06-22T03:43:22;18.73;;;15.87;;
16826;SDS011;8530;49.540;8.576;2023-06-22T03:45:49;17.27;;;15.57;;
16826;SDS011;8530;49.540;8.576;2023-06-22T03:48:17;16.87;;;15.07;;
16826;SDS011;8530;49.540;8.576;2023-06-22T03:50:44;17.20;;;15.50;;
16826;SDS011;8530;49.540;8.576;2023-06-22T03:53:11;15.20;;;13.63;;
16826;SDS011;8530;49.540;8.576;2023-06-22T03:55:40;21.33;;;14.03;;
16826;SDS011;8530;49.540;8.576;2023-06-22T03:58:15;15.83;;;12.30;;
16826;SDS011;8530;49.540;8.576;2023-06-22T04:00:41;14.93;;;13.27;;
16826;SDS011;8530;49.540;8.576;2023-06-22T04:03:08;14.97;;;13.37;;
16826;SDS011;8530;49.540;8.576;2023-06-22T04:05:38;13.00;;;11.53;;
16826;SDS011;8530;49.540;8.576;2023-06-22T04:08:05;13.10;;;11.90;;
16826;SDS011;8530;49.540;8.576;2023-06-22T04:10:32;18.03;;;11.60;;
16826;SDS011;8530;49.540;8.576;2023-06-22T04:12:58;12.10;;;10.90;;
16826;SDS011;8530;49.540;8.576;2023-06-22T04:15:27;13.77;;;12.47;;
16826;SDS011;8530;49.540;8.576;2023-06-22T04:17:54;11.67;;;10.37;;
16826;SDS011;8530;49.540;8.576;2023-06-22T04:20:21;13.13;;;11.03;;
16826;SDS011;8530;49.540;8.576;2023-06-22T04:22:51;11.20;;;10.10;;
16826;SDS011;8530;49.540;8.576;2023-06-22T04:25:18;12.40;;;11.10;;
16826;SDS011;8530;49.540;8.576;2023-06-22T04:27:45;11.70;;;10.03;;
16826;SDS011;8530;49.540;8.576;2023-06-22T04:30:13;13.43;;;10.83;;
16826;SDS011;8530;49.540;8.576;2023-06-22T04:32:41;11.17;;;10.07;;
16826;SDS011;8530;49.540;8.576;2023-06-22T04:35:08;25.27;;;11.10;;
16826;SDS011;8530;49.540;8.576;2023-06-22T04:37:35;9.03;;;8.13;;
16826;SDS011;8530;49.540;8.576;2023-06-22T04:40:06;12.50;;;10.50;;
16826;SDS011;8530;49.540;8.576;2023-06-22T04:42:40;9.97;;;8.97;;
16826;SDS011;8530;49.540;8.576;2023-06-22T04:45:18;11.60;;;10.23;;
16826;SDS011;8530;49.540;8.576;2023-06-22T04:47:48;11.60;;;8.87;;
16826;SDS011;8530;49.540;8.576;2023-06-22T04:50:24;11.40;;;8.57;;
16826;SDS011;8530;49.540;8.576;2023-06-22T04:52:55;12.10;;;9.80;;
16826;SDS011;8530;49.540;8.576;2023-06-22T04:55:32;14.20;;;9.30;;
16826;SDS011;8530;49.540;8.576;2023-06-22T04:57:59;9.97;;;9.07;;
16826;SDS011;8530;49.540;8.576;2023-06-22T05:00:30;11.43;;;10.03;;
16826;SDS011;8530;49.540;8.576;2023-06-22T05:02:57;9.53;;;8.53;;
16826;SDS011;8530;49.540;8.576;2023-06-22T05:05:28;11.67;;;8.57;;
16826;SDS011;8530;49.540;8.576;2023-06-22T05:08:08;10.53;;;8.37;;
16826;SDS011;8530;49.540;8.576;2023-06-22T05:10:37;13.03;;;8.53;;
16826;SDS011;8530;49.540;8.576;2023-06-22T05:13:32;10.63;;;7.30;;
16826;SDS011;8530;49.540;8.576;2023-06-22T05:16:05;9.17;;;7.63;;
16826;SDS011;8530;49.540;8.576;2023-06-22T05:18:49;8.20;;;7.40;;
16826;SDS011;8530;49.540;8.576;2023-06-22T05:21:23;10.40;;;7.87;;
16826;SDS011;8530;49.540;8.576;2023-06-22T05:23:52;10.10;;;7.73;;
16826;SDS011;8530;49.540;8.576;2023-06-22T05:26:22;9.10;;;7.60;;
16826;SDS011;8530;49.540;8.576;2023-06-22T05:28:50;9.93;;;7.00;;
16826;SDS011;8530;49.540;8.576;2023-06-22T05:31:26;9.80;;;7.60;;
16826;SDS011;8530;49.540;8.576;2023-06-22T05:33:55;8.80;;;7.37;;
16826;SDS011;8530;49.540;8.576;2023-06-22T05:36:24;8.33;;;7.17;;
16826;SDS011;8530;49.540;8.576;2023-06-22T05:39:14;8.90;;;7.40;;
16826;SDS011;8530;49.540;8.576;2023-06-22T05:41:59;12.87;;;6.77;;
16826;SDS011;8530;49.540;8.576;2023-06-22T05:44:36;9.03;;;7.50;;
16826;SDS011;8530;49.540;8.576;2023-06-22T05:47:07;9.77;;;8.33;;
16826;SDS011;8530;49.540;8.576;2023-06-22T05:49:38;6.63;;;6.03;;
16826;SDS011;8530;49.540;8.576;2023-06-22T05:52:33;13.55;;;6.70;;
16826;SDS011;8530;49.540;8.576;2023-06-22T05:55:25;7.07;;;6.38;;
16826;SDS011;8530;49.540;8.576;2023-06-22T05:57:56;8.13;;;6.18;;
16826;SDS011;8530;49.540;8.576;2023-06-22T06:00:40;7.88;;;5.90;;
16826;SDS011;8530;49.540;8.576;2023-06-22T06:03:43;7.07;;;6.10;;
16826;SDS011;8530;49.540;8.576;2023-06-22T06:06:22;7.50;;;5.80;;
16826;SDS011;8530;49.540;8.576;2023-06-22T06:08:57;6.78;;;5.70;;
16826;SDS011;8530;49.540;8.576;2023-06-22T06:11:24;6.82;;;6.20;;
16826;SDS011;8530;49.540;8.576;2023-06-22T06:13:59;7.32;;;5.78;;
16826;SDS011;8530;49.540;8.576;2023-06-22T06:16:31;10.43;;;5.97;;
16826;SDS011;8530;49.540;8.576;2023-06-22T06:19:13;9.93;;;5.95;;
16826;SDS011;8530;49.540;8.576;2023-06-22T06:21:40;6.70;;;5.57;;
16826;SDS011;8530;49.540;8.576;2023-06-22T06:24:07;6.55;;;5.78;;
16826;SDS011;8530;49.540;8.576;2023-06-22T06:26:34;7.28;;;5.10;;
16826;SDS011;8530;49.540;8.576;2023-06-22T06:29:02;5.75;;;5.25;;
16826;SDS011;8530;49.540;8.576;2023-06-22T06:31:29;6.13;;;5.53;;
16826;SDS011;8530;49.540;8.576;2023-06-22T06:33:56;5.85;;;5.28;;
16826;SDS011;8530;49.540;8.576;2023-06-22T06:36:22;6.88;;;6.00;;
16826;SDS011;8530;49.540;8.576;2023-06-22T06:38:49;6.28;;;5.68;;
16826;SDS011;8530;49.540;8.576;2023-06-22T06:41:16;7.32;;;5.55;;
16826;SDS011;8530;49.540;8.576;2023-06-22T06:43:43;9.55;;;5.07;;
16826;SDS011;8530;49.540;8.576;2023-06-22T06:46:11;7.90;;;5.97;;
16826;SDS011;8530;49.540;8.576;2023-06-22T06:48:40;6.65;;;4.97;;
16826;SDS011;8530;49.540;8.576;2023-06-22T06:51:07;7.68;;;5.43;;
16826;SDS011;8530;49.540;8.576;2023-06-22T06:53:34;6.47;;;5.20;;
16826;SDS011;8530;49.540;8.576;2023-06-22T06:56:01;7.93;;;5.53;;
16826;SDS011;8530;49.540;8.576;2023-06-22T06:58:28;5.88;;;5.00;;
16826;SDS011;8530;49.540;8.576;2023-06-22T07:00:55;6.05;;;5.35;;
16826;SDS011;8530;49.540;8.576;2023-06-22T07:03:23;8.63;;;5.82;;
16826;SDS011;8530;49.540;8.576;2023-06-22T07:05:49;6.15;;;5.43;;
16826;SDS011;8530;49.540;8.576;2023-06-22T07:08:16;6.47;;;5.88;;
16826;SDS011;8530;49.540;8.576;2023-06-22T07:10:43;7.28;;;5.15;;
16826;SDS011;8530;49.540;8.576;2023-06-22T07:13:10;6.47;;;5.38;;
16826;SDS011;8530;49.540;8.576;2023-06-22T07:15:37;5.90;;;5.32;;
16826;SDS011;8530;49.540;8.576;2023-06-22T07:18:05;5.60;;;5.10;;
16826;SDS011;8530;49.540;8.576;2023-06-22T07:20:33;5.93;;;5.25;;
16826;SDS011;8530;49.540;8.576;2023-06-22T07:23:00;6.57;;;5.70;;
16826;SDS011;8530;49.540;8.576;2023-06-22T07:25:28;5.43;;;4.93;;
16826;SDS011;8530;49.540;8.576;2023-06-22T07:27:58;6.70;;;5.07;;
16826;SDS011;8530;49.540;8.576;2023-06-22T07:30:27;9.57;;;4.88;;
16826;SDS011;8530;49.540;8.576;2023-06-22T07:32:54;10.25;;;5.72;;
16826;SDS011;8530;49.540;8.576;2023-06-22T07:35:21;6.13;;;4.20;;
16826;SDS011;8530;49.540;8.576;2023-06-22T07:37:50;5.90;;;5.30;;
16826;SDS011;8530;49.540;8.576;2023-06-22T07:40:17;6.00;;;5.38;;
16826;SDS011;8530;49.540;8.576;2023-06-22T07:42:43;6.25;;;5.05;;
16826;SDS011;8530;49.540;8.576;2023-06-22T07:45:13;13.45;;;5.45;;
16826;SDS011;8530;49.540;8.576;2023-06-22T07:47:40;9.57;;;5.93;;
16826;SDS011;8530;49.540;8.576;2023-06-22T07:50:07;5.50;;;4.93;;
16826;SDS011;8530;49.540;8.576;2023-06-22T07:52:35;5.50;;;4.53;;
16826;SDS011;8530;49.540;8.576;2023-06-22T07:55:03;8.90;;;5.38;;
16826;SDS011;8530;49.540;8.576;2023-06-22T07:57:30;5.68;;;5.07;;
16826;SDS011;8530;49.540;8.576;2023-06-22T08:00:01;5.25;;;4.47;;
16826;SDS011;8530;49.540;8.576;2023-06-22T08:02:36;7.03;;;4.68;;
16826;SDS011;8530;49.540;8.576;2023-06-22T08:05:03;5.43;;;4.68;;
16826;SDS011;8530;49.540;8.576;2023-06-22T08:07:32;6.85;;;4.68;;
16826;SDS011;8530;49.540;8.576;2023-06-22T08:09:58;6.63;;;5.25;;
16826;SDS011;8530;49.540;8.576;2023-06-22T08:12:26;10.40;;;5.55;;
16826;SDS011;8530;49.540;8.576;2023-06-22T08:14:53;10.15;;;5.32;;
16826;SDS011;8530;49.540;8.576;2023-06-22T08:17:21;8.82;;;4.85;;
16826;SDS011;8530;49.540;8.576;2023-06-22T08:19:48;7.45;;;4.97;;
16826;SDS011;8530;49.540;8.576;2023-06-22T08:22:15;7.93;;;5.97;;
16826;SDS011;8530;49.540;8.576;2023-06-22T08:24:42;8.05;;;5.22;;
16826;SDS011;8530;49.540;8.576;2023-06-22T08:27:09;5.72;;;4.82;;
16826;SDS011;8530;49.540;8.576;2023-06-22T08:29:38;5.88;;;4.70;;
16826;SDS011;8530;49.540;8.576;2023-06-22T08:32:07;6.57;;;5.63;;
16826;SDS011;8530;49.540;8.576;2023-06-22T08:34:34;9.77;;;5.88;;
16826;SDS011;8530;49.540;8.576;2023-06-22T08:37:01;5.68;;;4.97;;
16826;SDS011;8530;49.540;8.576;2023-06-22T08:39:31;8.30;;;4.93;;
16826;SDS011;8530;49.540;8.576;2023-06-22T08:41:58;7.80;;;5.25;;
16826;SDS011;8530;49.540;8.576;2023-06-22T08:44:25;6.57;;;5.80;;
16826;SDS011;8530;49.540;8.576;2023-06-22T08:46:53;8.77;;;5.65;;
16826;SDS011;8530;49.540;8.576;2023-06-22T08:49:20;7.75;;;5.70;;
16826;SDS011;8530;49.540;8.576;2023-06-22T08:51:47;9.40;;;5.55;;
16826;SDS011;8530;49.540;8.576;2023-06-22T08:54:14;6.97;;;5.38;;
16826;SDS011;8530;49.540;8.576;2023-06-22T08:56:41;11.55;;;5.40;;
16826;SDS011;8530;49.540;8.576;2023-06-22T08:59:09;6.45;;;5.03;;
16826;SDS011;8530;49.540;8.576;2023-06-22T09:01:35;8.85;;;5.95;;
16826;SDS011;8530;49.540;8.576;2023-06-22T09:04:04;6.13;;;5.32;;
16826;SDS011;8530;49.540;8.576;2023-06-22T09:06:32;5.43;;;4.93;;
16826;SDS011;8530;49.540;8.576;2023-06-22T09:08:59;7.28;;;5.30;;
16826;SDS011;8530;49.540;8.576;2023-06-22T09:11:26;9.90;;;5.47;;
16826;SDS011;8530;49.540;8.576;2023-06-22T09:13:52;7.68;;;6.30;;
16826;SDS011;8530;49.540;8.576;2023-06-22T09:16:19;7.95;;;5.05;;
16826;SDS011;8530;49.540;8.576;2023-06-22T09:18:46;12.85;;;6.50;;
16826;SDS011;8530;49.540;8.576;2023-06-22T09:21:15;12.00;;;5.97;;
16826;SDS011;8530;49.540;8.576;2023-06-22T09:23:42;8.70;;;5.68;;
16826;SDS011;8530;49.540;8.576;2023-06-22T09:26:10;9.60;;;5.32;;
16826;SDS011;8530;49.540;8.576;2023-06-22T09:28:37;6.88;;;4.93;;
16826;SDS011;8530;49.540;8.576;2023-06-22T09:31:03;6.50;;;5.05;;
16826;SDS011;8530;49.540;8.576;2023-06-22T09:33:30;5.65;;;5.07;;
16826;SDS011;8530;49.540;8.576;2023-06-22T09:35:57;9.43;;;5.60;;
16826;SDS011;8530;49.540;8.576;2023-06-22T09:38:25;17.10;;;5.15;;
16826;SDS011;8530;49.540;8.576;2023-06-22T09:40:52;8.40;;;5.65;;
16826;SDS011;8530;49.540;8.576;2023-06-22T09:43:19;5.40;;;4.90;;
16826;SDS011;8530;49.540;8.576;2023-06-22T09:45:46;7.00;;;5.63;;
16826;SDS011;8530;49.540;8.576;2023-06-22T09:48:13;6.20;;;4.93;;
16826;SDS011;8530;49.540;8.576;2023-06-22T09:50:40;10.38;;;5.70;;
16826;SDS011;8530;49.540;8.576;2023-06-22T09:53:06;12.70;;;6.22;;
16826;SDS011;8530;49.540;8.576;2023-06-22T09:55:35;9.05;;;6.50;;
16826;SDS011;8530;49.540;8.576;2023-06-22T09:58:02;8.65;;;5.53;;
16826;SDS011;8530;49.540;8.576;2023-06-22T10:00:29;12.73;;;6.40;;
16826;SDS011;8530;49.540;8.576;2023-06-22T10:02:56;7.07;;;5.63;;
16826;SDS011;8530;49.540;8.576;2023-06-22T10:05:23;8.13;;;4.80;;
16826;SDS011;8530;49.540;8.576;2023-06-22T10:07:51;9.25;;;5.90;;
16826;SDS011;8530;49.540;8.576;2023-06-22T10:10:18;9.93;;;5.50;;
16826;SDS011;8530;49.540;8.576;2023-06-22T10:12:46;9.70;;;6.72;;
16826;SDS011;8530;49.540;8.576;2023-06-22T10:15:20;7.78;;;5.68;;
16826;SDS011;8530;49.540;8.576;2023-06-22T10:17:47;6.85;;;4.88;;
16826;SDS011;8530;49.540;8.576;2023-06-22T10:20:14;11.50;;;6.60;;
16826;SDS011;8530;49.540;8.576;2023-06-22T10:22:44;10.18;;;5.63;;
16826;SDS011;8530;49.540;8.576;2023-06-22T10:25:11;7.53;;;5.35;;
16826;SDS011;8530;49.540;8.576;2023-06-22T10:27:38;9.40;;;5.72;;
16826;SDS011;8530;49.540;8.576;2023-06-22T10:30:08;6.18;;;4.95;;
16826;SDS011;8530;49.540;8.576;2023-06-22T10:32:37;9.70;;;6.05;;
16826;SDS011;8530;49.540;8.576;2023-06-22T10:35:05;6.15;;;5.22;;
16826;SDS011;8530;49.540;8.576;2023-06-22T10:37:32;6.68;;;5.28;;
16826;SDS011;8530;49.540;8.576;2023-06-22T10:39:59;10.18;;;5.97;;
16826;SDS011;8530;49.540;8.576;2023-06-22T10:42:26;7.10;;;5.88;;
16826;SDS011;8530;49.540;8.576;2023-06-22T10:44:52;12.20;;;6.13;;
16826;SDS011;8530;49.540;8.576;2023-06-22T10:47:20;6.93;;;5.30;;
16826;SDS011;8530;49.540;8.576;2023-06-22T10:49:47;7.85;;;5.43;;
16826;SDS011;8530;49.540;8.576;2023-06-22T10:52:14;7.93;;;5.95;;
16826;SDS011;8530;49.540;8.576;2023-06-22T10:54:41;10.52;;;6.82;;
16826;SDS011;8530;49.540;8.576;2023-06-22T10:57:08;13.23;;;5.18;;
16826;SDS011;8530;49.540;8.576;2023-06-22T10:59:35;12.32;;;5.25;;
16826;SDS011;8530;49.540;8.576;2023-06-22T11:02:02;9.90;;;5.60;;
16826;SDS011;8530;49.540;8.576;2023-06-22T11:04:31;15.70;;;5.47;;
16826;SDS011;8530;49.540;8.576;2023-06-22T11:06:57;8.60;;;5.70;;
16826;SDS011;8530;49.540;8.576;2023-06-22T11:09:24;12.95;;;6.72;;
16826;SDS011;8530;49.540;8.576;2023-06-22T11:11:51;12.23;;;6.20;;
16826;SDS011;8530;49.540;8.576;2023-06-22T11:14:19;6.55;;;5.30;;
16826;SDS011;8530;49.540;8.576;2023-06-22T11:16:46;11.38;;;5.85;;
16826;SDS011;8530;49.540;8.576;2023-06-22T11:19:12;8.07;;;5.97;;
16826;SDS011;8530;49.540;8.576;2023-06-22T11:21:40;10.50;;;6.03;;
16826;SDS011;8530;49.540;8.576;2023-06-22T11:24:07;9.70;;;6.10;;
16826;SDS011;8530;49.540;8.576;2023-06-22T11:26:34;9.80;;;6.63;;
16826;SDS011;8530;49.540;8.576;2023-06-22T11:29:02;12.25;;;6.30;;
16826;SDS011;8530;49.540;8.576;2023-06-22T11:31:30;11.35;;;6.55;;
16826;SDS011;8530;49.540;8.576;2023-06-22T11:33:57;18.38;;;5.90;;
16826;SDS011;8530;49.540;8.576;2023-06-22T11:36:23;12.02;;;5.43;;
16826;SDS011;8530;49.540;8.576;2023-06-22T11:38:53;12.10;;;6.45;;
16826;SDS011;8530;49.540;8.576;2023-06-22T11:41:20;14.25;;;6.78;;
16826;SDS011;8530;49.540;8.576;2023-06-22T11:43:47;16.38;;;7.18;;
16826;SDS011;8530;49.540;8.576;2023-06-22T11:46:14;13.40;;;6.20;;
16826;SDS011;8530;49.540;8.576;2023-06-22T11:48:41;11.48;;;5.97;;
16826;SDS011;8530;49.540;8.576;2023-06-22T11:51:08;10.90;;;7.03;;
16826;SDS011;8530;49.540;8.576;2023-06-22T11:53:38;9.82;;;5.15;;
16826;SDS011;8530;49.540;8.576;2023-06-22T11:56:07;6.45;;;5.43;;
16826;SDS011;8530;49.540;8.576;2023-06-22T11:58:34;7.72;;;5.68;;
16826;SDS011;8530;49.540;8.576;2023-06-22T12:01:01;13.85;;;6.47;;
16826;SDS011;8530;49.540;8.576;2023-06-22T12:03:28;7.88;;;5.47;;
16826;SDS011;8530;49.540;8.576;2023-06-22T12:05:55;9.80;;;5.18;;
16826;SDS011;8530;49.540;8.576;2023-06-22T12:08:22;8.60;;;5.60;;
16826;SDS011;8530;49.540;8.576;2023-06-22T12:10:49;8.85;;;5.45;;
16826;SDS011;8530;49.540;8.576;2023-06-22T12:13:18;12.13;;;5.70;;
16826;SDS011;8530;49.540;8.576;2023-06-22T12:15:45;12.00;;;6.07;;
16826;SDS011;8530;49.540;8.576;2023-06-22T12:18:12;11.07;;;6.30;;
16826;SDS011;8530;49.540;8.576;2023-06-22T12:20:40;7.82;;;5.68;;
16826;SDS011;8530;49.540;8.576;2023-06-22T12:23:10;9.55;;;5.40;;
16826;SDS011;8530;49.540;8.576;2023-06-22T12:25:37;15.88;;;6.38;;
16826;SDS011;8530;49.540;8.576;2023-06-22T12:28:03;16.60;;;4.72;;
16826;SDS011;8530;49.540;8.576;2023-06-22T12:30:32;8.57;;;5.05;;
16826;SDS011;8530;49.540;8.576;2023-06-22T12:32:59;11.82;;;5.53;;
16826;SDS011;8530;49.540;8.576;2023-06-22T12:35:26;18.90;;;6.43;;
16826;SDS011;8530;49.540;8.576;2023-06-22T12:37:52;11.40;;;5.80;;
16826;SDS011;8530;49.540;8.576;2023-06-22T12:40:19;11.80;;;5.53;;
16826;SDS011;8530;49.540;8.576;2023-06-22T12:42:46;13.45;;;6.13;;
16826;SDS011;8530;49.540;8.576;2023-06-22T12:45:13;10.68;;;5.35;;
16826;SDS011;8530;49.540;8.576;2023-06-22T12:47:41;15.43;;;5.75;;
16826;SDS011;8530;49.540;8.576;2023-06-22T12:50:08;12.60;;;4.90;;
16826;SDS011;8530;49.540;8.576;2023-06-22T12:52:36;15.93;;;5.43;;
16826;SDS011;8530;49.540;8.576;2023-06-22T12:55:04;10.07;;;5.53;;
16826;SDS011;8530;49.540;8.576;2023-06-22T12:57:31;10.85;;;4.93;;
16826;SDS011;8530;49.540;8.576;2023-06-22T13:00:00;14.52;;;5.35;;
16826;SDS011;8530;49.540;8.576;2023-06-22T13:02:26;9.00;;;4.47;;
16826;SDS011;8530;49.540;8.576;2023-06-22T13:04:55;12.20;;;5.85;;
16826;SDS011;8530;49.540;8.576;2023-06-22T13:07:22;10.55;;;5.40;;
16826;SDS011;8530;49.540;8.576;2023-06-22T13:09:48;12.57;;;6.30;;
16826;SDS011;8530;49.540;8.576;2023-06-22T13:12:16;14.63;;;5.35;;
16826;SDS011;8530;49.540;8.576;2023-06-22T13:14:44;10.35;;;5.53;;
16826;SDS011;8530;49.540;8.576;2023-06-22T13:17:12;13.18;;;5.65;;
16826;SDS011;8530;49.540;8.576;2023-06-22T13:19:39;12.88;;;5.00;;
16826;SDS011;8530;49.540;8.576;2023-06-22T13:22:09;8.13;;;4.78;;
16826;SDS011;8530;49.540;8.576;2023-06-22T13:24:56;8.52;;;5.40;;
16826;SDS011;8530;49.540;8.576;2023-06-22T13:27:23;8.55;;;5.40;;
16826;SDS011;8530;49.540;8.576;2023-06-22T13:29:50;7.32;;;5.78;;
16826;SDS011;8530;49.540;8.576;2023-06-22T13:32:17;11.20;;;5.55;;
16826;SDS011;8530;49.540;8.576;2023-06-22T13:34:43;8.23;;;5.18;;
16826;SDS011;8530;49.540;8.576;2023-06-22T13:37:12;11.85;;;6.22;;
16826;SDS011;8530;49.540;8.576;2023-06-22T13:39:39;9.93;;;5.88;;
16826;SDS011;8530;49.540;8.576;2023-06-22T13:42:06;9.23;;;5.45;;
16826;SDS011;8530;49.540;8.576;2023-06-22T13:44:33;17.65;;;5.78;;
16826;SDS011;8530;49.540;8.576;2023-06-22T13:47:01;10.93;;;4.30;;
16826;SDS011;8530;49.540;8.576;2023-06-22T13:49:28;10.20;;;5.72;;
16826;SDS011;8530;49.540;8.576;2023-06-22T13:51:55;9.43;;;5.90;;
16826;SDS011;8530;49.540;8.576;2023-06-22T13:54:23;9.55;;;5.70;;
16826;SDS011;8530;49.540;8.576;2023-06-22T13:56:50;9.48;;;5.57;;
16826;SDS011;8530;49.540;8.576;2023-06-22T13:59:17;22.10;;;5.97;;
16826;SDS011;8530;49.540;8.576;2023-06-22T14:01:44;10.40;;;6.30;;
16826;SDS011;8530;49.540;8.576;2023-06-22T14:04:11;7.40;;;5.72;;
16826;SDS011;8530;49.540;8.576;2023-06-22T14:06:38;12.27;;;5.68;;
16826;SDS011;8530;49.540;8.576;2023-06-22T14:09:05;13.55;;;6.28;;
16826;SDS011;8530;49.540;8.576;2023-06-22T14:11:33;8.65;;;5.63;;
16826;SDS011;8530;49.540;8.576;2023-06-22T14:14:01;10.48;;;6.03;;
16826;SDS011;8530;49.540;8.576;2023-06-22T14:16:27;28.88;;;7.75;;
16826;SDS011;8530;49.540;8.576;2023-06-22T14:18:54;10.75;;;5.82;;
16826;SDS011;8530;49.540;8.576;2023-06-22T14:21:21;16.20;;;5.78;;
16826;SDS011;8530;49.540;8.576;2023-06-22T14:23:48;13.13;;;6.10;;
16826;SDS011;8530;49.540;8.576;2023-06-22T14:26:15;13.52;;;6.60;;
16826;SDS011;8530;49.540;8.576;2023-06-22T14:28:44;7.10;;;5.30;;
16826;SDS011;8530;49.540;8.576;2023-06-22T14:31:13;7.55;;;4.43;;
16826;SDS011;8530;49.540;8.576;2023-06-22T14:33:43;21.80;;;7.93;;
16826;SDS011;8530;49.540;8.576;2023-06-22T14:36:12;12.52;;;6.10;;
16826;SDS011;8530;49.540;8.576;2023-06-22T14:38:39;10.25;;;5.82;;
16826;SDS011;8530;49.540;8.576;2023-06-22T14:41:05;20.02;;;6.82;;
16826;SDS011;8530;49.540;8.576;2023-06-22T14:43:32;11.00;;;6.00;;
16826;SDS011;8530;49.540;8.576;2023-06-22T14:46:01;13.38;;;6.47;;
16826;SDS011;8530;49.540;8.576;2023-06-22T14:48:28;15.98;;;6.35;;
16826;SDS011;8530;49.540;8.576;2023-06-22T14:50:55;11.65;;;6.38;;
16826;SDS011;8530;49.540;8.576;2023-06-22T14:53:23;13.27;;;6.15;;
16826;SDS011;8530;49.540;8.576;2023-06-22T14:55:51;15.13;;;6.20;;
16826;SDS011;8530;49.540;8.576;2023-06-22T14:58:18;14.60;;;7.20;;